Time;durP1;ratioP1;P1;durP2;ratioP2;P2;SDS_P1;SDS_P2;PMS_P1;PMS_P2;Temp;Humidity;BMP_temperature;BMP_pressure;BME280_temperature;BME280_humidity;BME280_pressure;Samples;Min_cycle;Max_cycle;Signal;HPM_P1;HPM_P2
2022/04/09 00:02:54;;;;;;;5.13;4.30;;;;;;;0.89;100.00;94572.06;10407154;28;20325;-52
2022/04/09 00:07:54;;;;;;;6.27;4.10;;;;;;;0.84;100.00;94589.75;10405057;28;20753;-54
2022/04/09 00:12:55;;;;;;;7.20;4.17;;;;;;;0.82;100.00;94601.16;10406484;28;20601;-56
2022/04/09 00:17:55;;;;;;;7.70;4.67;;;;;;;0.79;100.00;94611.78;10406206;28;20212;-52
2022/04/09 00:22:55;;;;;;;5.87;4.03;;;;;;;0.81;100.00;94610.69;10406173;28;20303;-57
2022/04/09 00:27:56;;;;;;;6.20;4.07;;;;;;;0.78;100.00;94621.28;10405390;28;20208;-54
2022/04/09 00:32:56;;;;;;;5.63;4.27;;;;;;;0.57;100.00;94615.59;10388500;28;20224;-53
2022/04/09 00:37:57;;;;;;;5.97;4.63;;;;;;;0.49;100.00;94622.31;10405619;28;20248;-56
2022/04/09 00:42:58;;;;;;;9.13;5.50;;;;;;;0.21;100.00;94625.88;10404994;28;20231;-57
2022/04/09 00:47:59;;;;;;;6.33;5.27;;;;;;;0.20;100.00;94619.09;10387016;28;20291;-53
2022/04/09 00:53:01;;;;;;;6.77;5.10;;;;;;;0.09;100.00;94627.81;10405382;28;20222;-57
2022/04/09 00:58:01;;;;;;;7.57;5.43;;;;;;;-0.01;100.00;94635.63;10387137;28;20185;-58
2022/04/09 01:03:02;;;;;;;6.93;5.33;;;;;;;-0.04;100.00;94646.19;10369037;28;20269;-55
2022/04/09 01:08:03;;;;;;;9.17;4.83;;;;;;;0.05;100.00;94655.63;10405530;28;20731;-57
2022/04/09 01:13:04;;;;;;;8.13;5.47;;;;;;;-0.02;100.00;94657.94;10404437;28;20224;-56
2022/04/09 01:18:05;;;;;;;6.10;4.83;;;;;;;0.14;100.00;94664.28;10387552;28;20194;-58
2022/04/09 01:23:06;;;;;;;9.73;5.30;;;;;;;0.15;100.00;94664.13;10395480;28;20212;-55
2022/04/09 01:28:06;;;;;;;5.77;4.57;;;;;;;0.29;100.00;94669.72;10393860;28;20235;-58
2022/04/09 01:33:07;;;;;;;8.37;6.30;;;;;;;0.31;100.00;94670.41;10412828;28;20222;-57
2022/04/09 01:38:08;;;;;;;8.30;5.53;;;;;;;0.37;100.00;94682.72;10393949;28;20187;-58
2022/04/09 01:43:09;;;;;;;7.97;6.30;;;;;;;0.39;100.00;94674.84;10393807;28;20239;-59
2022/04/09 01:48:10;;;;;;;7.43;6.10;;;;;;;0.33;100.00;94684.75;10393209;28;20193;-59
2022/04/09 01:53:10;;;;;;;9.00;6.50;;;;;;;0.32;100.00;94692.63;10412064;28;20222;-57
2022/04/09 01:58:11;;;;;;;10.27;7.37;;;;;;;0.32;100.00;94703.75;10393757;28;20284;-54
2022/04/09 02:03:15;;;;;;;10.60;7.50;;;;;;;0.38;100.00;94701.53;10393016;28;20235;-53
2022/04/09 02:08:16;;;;;;;12.43;8.23;;;;;;;0.36;100.00;94701.69;10393745;28;20736;-57
2022/04/09 02:13:18;;;;;;;17.67;9.00;;;;;;;0.37;100.00;94710.22;10392827;28;20270;-54
2022/04/09 02:18:19;;;;;;;15.17;9.23;;;;;;;0.47;100.00;94719.50;10392326;28;20281;-57
2022/04/09 02:23:20;;;;;;;14.00;8.40;;;;;;;0.47;100.00;94722.09;10404100;28;20638;-53
2022/04/09 02:28:20;;;;;;;18.13;8.53;;;;;;;0.45;100.00;94733.50;10402845;28;20194;-53
2022/04/09 02:33:22;;;;;;;16.57;9.30;;;;;;;0.52;100.00;94740.53;10384553;28;20724;-53
2022/04/09 02:38:24;;;;;;;14.73;7.87;;;;;;;0.58;100.00;94754.56;10391889;28;20184;-51
2022/04/09 02:43:24;;;;;;;10.83;8.13;;;;;;;0.48;100.00;94767.50;10392085;28;20236;-57
2022/04/09 02:48:25;;;;;;;12.13;8.77;;;;;;;0.63;100.00;94787.63;10391014;28;20198;-54
2022/04/09 02:53:26;;;;;;;12.40;8.63;;;;;;;0.66;100.00;94801.06;10387328;28;20726;-51
2022/04/09 02:58:28;;;;;;;14.03;8.07;;;;;;;0.64;100.00;94820.19;10387553;28;20690;-57
2022/04/09 03:03:29;;;;;;;14.87;9.27;;;;;;;0.66;100.00;94824.25;10388568;28;20208;-58
2022/04/09 03:08:30;;;;;;;12.97;9.47;;;;;;;0.58;100.00;94834.44;10385266;28;20210;-58
2022/04/09 03:13:30;;;;;;;16.13;10.50;;;;;;;0.55;100.00;94844.22;10401365;28;20221;-56
2022/04/09 03:18:31;;;;;;;13.83;9.40;;;;;;;0.59;100.00;94850.72;10401366;28;20223;-55
2022/04/09 03:23:31;;;;;;;14.63;10.10;;;;;;;0.57;100.00;94862.91;10383322;28;20354;-51
2022/04/09 03:28:34;;;;;;;20.50;10.80;;;;;;;0.55;100.00;94878.53;10400811;28;20187;-52
2022/04/09 03:33:36;;;;;;;18.33;11.17;;;;;;;0.58;100.00;94880.00;10382601;28;20606;-54
2022/04/09 03:38:42;;;;;;;19.60;12.23;;;;;;;0.55;100.00;94895.75;10366752;28;20671;-55
2022/04/09 03:43:43;;;;;;;21.80;11.93;;;;;;;0.53;100.00;94913.94;10382149;28;20329;-53
2022/04/09 03:48:44;;;;;;;20.83;11.87;;;;;;;0.60;100.00;94922.72;10382688;28;20561;-56
2022/04/09 03:53:46;;;;;;;19.73;11.00;;;;;;;0.70;100.00;94931.25;10382445;28;20755;-54
2022/04/09 03:58:48;;;;;;;22.77;11.20;;;;;;;0.62;100.00;94948.38;10381747;28;20248;-55
2022/04/09 04:03:51;;;;;;;15.83;10.80;;;;;;;0.63;100.00;94966.25;10385084;28;20211;-53
2022/04/09 04:08:52;;;;;;;15.80;10.67;;;;;;;0.73;100.00;94978.31;10387529;28;20185;-51
2022/04/09 04:13:54;;;;;;;18.90;11.83;;;;;;;0.76;100.00;95006.38;10388114;28;20271;-51
2022/04/09 04:18:57;;;;;;;17.90;10.20;;;;;;;0.85;100.00;95008.13;10387052;28;20192;-51
2022/04/09 04:23:58;;;;;;;23.37;10.93;;;;;;;0.85;100.00;95028.75;10388903;28;20211;-51
2022/04/09 04:28:59;;;;;;;21.80;11.03;;;;;;;0.89;100.00;95040.41;10388589;28;20670;-50
2022/04/09 04:34:02;;;;;;;17.67;10.07;;;;;;;0.91;100.00;95053.97;10388187;28;20215;-50
2022/04/09 04:39:07;;;;;;;16.80;10.03;;;;;;;0.84;100.00;95069.19;10387856;28;20754;-50
2022/04/09 04:44:09;;;;;;;12.20;8.83;;;;;;;0.87;100.00;95086.97;10387777;28;20321;-50
2022/04/09 04:49:15;;;;;;;13.13;8.77;;;;;;;0.87;100.00;95104.16;10387720;28;20189;-50
2022/04/09 04:54:16;;;;;;;18.00;9.33;;;;;;;0.84;100.00;95115.59;10387143;28;20207;-51
2022/04/09 04:59:19;;;;;;;19.60;9.00;;;;;;;0.92;100.00;95122.63;10388112;28;20257;-51
2022/04/09 05:04:20;;;;;;;16.17;10.47;;;;;;;0.83;100.00;95133.78;10387109;28;20250;-52
2022/04/09 05:09:26;;;;;;;17.97;8.97;;;;;;;0.98;100.00;95137.56;10387766;28;20323;-51
2022/04/09 05:14:31;;;;;;;14.50;8.43;;;;;;;0.94;100.00;95156.81;10386687;28;20264;-50
2022/04/09 05:19:36;;;;;;;15.87;9.00;;;;;;;0.89;100.00;95167.53;10388529;28;20187;-50
2022/04/09 05:24:44;;;;;;;17.20;8.53;;;;;;;1.11;100.00;95175.97;10386669;28;20660;-52
2022/04/09 05:29:47;;;;;;;18.57;8.67;;;;;;;1.07;100.00;95190.06;10387358;28;20302;-50
2022/04/09 05:34:50;;;;;;;15.27;7.77;;;;;;;1.17;100.00;95192.66;10388178;28;20709;-50
2022/04/09 05:39:52;;;;;;;16.07;9.30;;;;;;;1.00;100.00;95210.44;10391435;28;20559;-50
2022/04/09 05:44:54;;;;;;;14.47;8.30;;;;;;;1.15;100.00;95215.16;10390994;28;20247;-50
2022/04/09 05:49:58;;;;;;;17.17;9.00;;;;;;;1.13;100.00;95232.56;10391227;28;20223;-51
2022/04/09 05:54:59;;;;;;;13.80;7.63;;;;;;;1.19;100.00;95234.59;10391612;28;20223;-50
2022/04/09 06:00:01;;;;;;;16.97;7.17;;;;;;;1.34;100.00;95256.47;10408632;28;20181;-50
2022/04/09 06:05:01;;;;;;;12.30;6.03;;;;;;;1.38;100.00;95257.81;10410231;28;20205;-51
2022/04/09 06:10:05;;;;;;;16.20;6.53;;;;;;;1.50;100.00;95266.25;10381869;28;20219;-49
2022/04/09 06:15:08;;;;;;;14.27;7.23;;;;;;;1.81;100.00;95283.31;10398361;28;20247;-52
2022/04/09 06:20:16;;;;;;;13.03;6.43;;;;;;;1.84;100.00;95283.03;10398204;28;20231;-58
2022/04/09 06:25:18;;;;;;;9.37;6.63;;;;;;;1.96;100.00;95297.44;10397849;28;20708;-58
2022/04/09 06:30:19;;;;;;;11.97;6.97;;;;;;;1.99;100.00;95312.69;10395648;28;20302;-55
2022/04/09 06:35:31;;;;;;;10.30;8.27;;;;;;;1.89;100.00;95333.34;10383101;28;20192;-58
2022/04/09 06:40:32;;;;;;;13.37;8.50;;;;;;;1.88;100.00;95347.19;10385741;28;20195;-58
2022/04/09 06:45:34;;;;;;;11.93;8.97;;;;;;;1.63;100.00;95356.31;10388535;28;20200;-55
2022/04/09 06:50:53;;;;;;;14.00;10.53;;;;;;;1.87;100.00;95365.41;10406061;28;20719;-56
2022/04/09 06:55:54;;;;;;;15.73;10.87;;;;;;;1.79;100.00;95368.66;10393109;28;20200;-57
2022/04/09 07:00:54;;;;;;;13.87;10.80;;;;;;;1.77;100.00;95370.56;10385950;28;20612;-51
2022/04/09 07:05:55;;;;;;;14.47;10.23;;;;;;;2.09;100.00;95380.63;10384897;28;21022;-51
2022/04/09 07:10:56;;;;;;;17.07;10.13;;;;;;;1.77;100.00;95380.91;10401933;28;20719;-50
2022/04/09 07:15:56;;;;;;;17.67;12.07;;;;;;;1.72;100.00;95388.25;10401905;28;20740;-50
2022/04/09 07:20:57;;;;;;;17.67;10.17;;;;;;;2.07;100.00;95385.13;10383143;28;20274;-51
2022/04/09 07:25:57;;;;;;;16.00;9.17;;;;;;;1.80;100.00;95390.97;10359911;28;20192;-51
2022/04/09 07:30:57;;;;;;;13.87;9.20;;;;;;;2.44;100.00;95394.72;10361306;28;20220;-54
2022/04/09 07:35:58;;;;;;;15.93;8.90;;;;;;;2.08;100.00;95410.00;10361039;28;20267;-51
2022/04/09 07:40:58;;;;;;;15.97;8.97;;;;;;;1.99;100.00;95426.31;10362661;28;20244;-50
2022/04/09 07:45:59;;;;;;;11.87;7.47;;;;;;;2.04;100.00;95438.84;10369035;28;20703;-50
2022/04/09 07:50:59;;;;;;;12.17;8.27;;;;;;;2.27;100.00;95439.38;10388139;28;20227;-51
2022/04/09 07:55:59;;;;;;;13.43;8.03;;;;;;;1.98;100.00;95445.34;10409053;28;20203;-50
2022/04/09 08:01:00;;;;;;;13.30;7.83;;;;;;;1.93;100.00;95448.34;10408177;28;20207;-50
2022/04/09 08:06:00;;;;;;;15.47;7.27;;;;;;;2.74;100.00;95449.78;10409457;28;20207;-51
2022/04/09 08:11:01;;;;;;;13.77;6.27;;;;;;;2.60;100.00;95466.53;10408029;28;20232;-50
2022/04/09 08:16:01;;;;;;;10.67;4.83;;;;;;;2.60;100.00;95474.28;10407795;28;20199;-52
2022/04/09 08:21:03;;;;;;;8.77;4.67;;;;;;;2.78;100.00;95487.34;10407906;28;20212;-53
2022/04/09 08:26:03;;;;;;;8.60;4.10;;;;;;;3.22;100.00;95479.06;10407096;28;20215;-51
2022/04/09 08:31:03;;;;;;;6.90;4.43;;;;;;;2.78;100.00;95496.88;10407252;28;20358;-53
2022/04/09 08:36:04;;;;;;;10.73;4.37;;;;;;;3.27;100.00;95497.56;10399653;28;20196;-56
2022/04/09 08:41:04;;;;;;;9.37;4.13;;;;;;;3.50;100.00;95510.16;10405509;28;20246;-53
2022/04/09 08:46:04;;;;;;;6.83;4.13;;;;;;;2.63;100.00;95520.56;10428129;23;21084;-55
2022/04/09 08:51:05;;;;;;;6.83;3.70;;;;;;;3.50;100.00;95510.16;10408190;28;20634;-56
2022/04/09 08:56:06;;;;;;;4.87;3.10;;;;;;;4.27;100.00;95506.34;10405026;28;20220;-54
2022/04/09 09:01:06;;;;;;;7.87;2.67;;;;;;;5.76;100.00;95481.34;10406640;28;20224;-53
2022/04/09 09:06:27;;;;;;;4.90;3.10;;;;;;;4.48;100.00;95500.03;10408040;28;20769;-54
2022/04/09 09:11:29;;;;;;;7.27;2.90;;;;;;;4.88;99.38;95490.94;10407185;28;20222;-53
2022/04/09 09:16:31;;;;;;;6.80;2.87;;;;;;;5.59;96.96;95473.50;10405551;28;20204;-56
2022/04/09 09:21:31;;;;;;;4.50;1.97;;;;;;;6.81;85.94;95398.41;10408148;28;20238;-56
2022/04/09 09:26:34;;;;;;;4.53;1.60;;;;;;;5.29;82.98;95379.56;10404916;28;21000;-53
2022/04/09 09:31:44;;;;;;;4.80;1.87;;;;;;;4.79;87.16;95447.75;10405601;28;20260;-52
2022/04/09 09:36:45;;;;;;;7.07;1.97;;;;;;;5.14;85.50;95428.66;10406245;28;20219;-52
2022/04/09 09:41:50;;;;;;;4.70;1.70;;;;;;;4.35;86.86;95452.91;10412060;28;20199;-52
2022/04/09 09:46:53;;;;;;;3.27;1.40;;;;;;;4.07;88.70;95468.53;10412808;28;20323;-54
2022/04/09 09:52:08;;;;;;;2.73;1.43;;;;;;;4.30;90.24;95492.25;10413578;28;20236;-54
2022/04/09 09:57:19;;;;;;;4.23;1.50;;;;;;;5.95;86.71;95447.28;10413436;28;21130;-55
2022/04/09 10:02:24;;;;;;;6.73;1.63;;;;;;;7.04;81.00;95400.31;10411844;28;20242;-58
2022/04/09 10:07:25;;;;;;;7.30;1.70;;;;;;;7.39;74.55;95333.94;10413841;28;20609;-54
2022/04/09 10:12:25;;;;;;;6.13;1.80;;;;;;;6.82;75.99;95365.41;10415334;28;20221;-52
2022/04/09 10:17:27;;;;;;;6.97;1.50;;;;;;;6.36;76.38;95391.97;10415391;28;20207;-53
2022/04/09 10:22:30;;;;;;;2.00;1.40;;;;;;;7.42;70.83;95304.13;10415503;28;20604;-56
2022/04/09 10:27:38;;;;;;;3.73;1.37;;;;;;;7.83;69.64;95324.72;10414015;28;20231;-53
2022/04/09 10:32:43;;;;;;;4.37;1.50;;;;;;;7.98;66.43;95283.06;10415491;28;20307;-53
2022/04/09 10:38:23;;;;;;;1.27;1.10;;;;;;;3.36;92.08;95641.69;10414433;28;20292;-52
2022/04/09 10:43:26;;;;;;;1.80;1.27;;;;;;;1.98;100.00;95599.50;10414069;28;20336;-60
2022/04/09 10:48:33;;;;;;;3.83;2.13;;;;;;;3.55;100.00;95596.81;10413999;28;20216;-57
2022/04/09 10:53:36;;;;;;;1.50;1.40;;;;;;;5.02;100.00;95577.00;10413570;28;20223;-56
2022/04/09 10:59:16;;;;;;;3.70;1.73;;;;;;;6.05;92.73;95533.81;10413772;28;20197;-55
2022/04/09 11:09:59;;;;;;;3.43;1.90;;;;;;;8.12;81.73;95446.59;10365155;28;20209;-55
2022/04/09 11:15:01;;;;;;;5.33;1.70;;;;;;;9.59;68.11;95286.81;10371733;28;20220;-59
2022/04/09 11:20:09;;;;;;;3.67;1.50;;;;;;;9.54;66.39;95327.59;10373131;28;20189;-54
2022/04/09 11:25:21;;;;;;;3.73;2.17;;;;;;;4.04;83.83;95658.00;10371833;28;20655;-55
2022/04/09 11:30:22;;;;;;;1.40;1.30;;;;;;;2.51;100.00;95653.47;10372501;28;20268;-52
2022/04/09 11:35:25;;;;;;;1.03;1.03;;;;;;;1.99;100.00;95647.59;10371216;28;20765;-58
2022/04/09 11:40:26;;;;;;;1.30;1.30;;;;;;;2.07;100.00;95656.34;10371898;28;20193;-57
2022/04/09 11:45:28;;;;;;;4.27;3.10;;;;;;;2.41;100.00;95645.72;10371090;28;20255;-58
2022/04/09 11:50:33;;;;;;;3.10;2.43;;;;;;;3.93;100.00;95626.13;10370003;28;20229;-56
2022/04/09 11:55:34;;;;;;;1.53;1.43;;;;;;;5.38;100.00;95613.31;10370865;28;20263;-55
2022/04/09 12:00:36;;;;;;;2.60;1.87;;;;;;;5.54;92.83;95579.66;10370789;28;20205;-54
2022/04/09 12:05:46;;;;;;;1.80;1.70;;;;;;;7.86;85.07;95520.72;10370492;28;20219;-55
2022/04/09 12:10:57;;;;;;;3.53;1.87;;;;;;;8.45;77.69;95475.13;10369815;28;20221;-54
2022/04/09 12:16:15;;;;;;;1.50;1.40;;;;;;;9.64;68.60;95373.34;10369560;28;20292;-54
2022/04/09 12:21:23;;;;;;;1.67;1.57;;;;;;;8.77;70.73;95422.84;10370443;28;20224;-55
2022/04/09 12:26:24;;;;;;;5.30;1.40;;;;;;;8.04;67.51;95371.84;10369316;28;20213;-54
2022/04/09 12:31:25;;;;;;;2.07;1.50;;;;;;;8.27;67.52;95381.47;10369635;28;20217;-54
2022/04/09 12:36:26;;;;;;;1.57;1.40;;;;;;;9.60;62.32;95293.69;10369551;28;20237;-57
2022/04/09 12:41:44;;;;;;;1.47;1.10;;;;;;;10.58;54.04;95133.41;10369442;28;20738;-59
2022/04/09 12:46:48;;;;;;;3.03;1.63;;;;;;;9.49;66.36;95418.81;10375228;28;20236;-59
2022/04/09 12:51:49;;;;;;;6.70;2.80;;;;;;;11.10;61.41;95342.59;10389069;28;20247;-54
2022/04/09 12:56:50;;;;;;;4.33;1.80;;;;;;;10.78;64.90;95431.25;10364996;28;20278;-55
2022/04/09 13:01:51;;;;;;;5.95;4.22;;;;;;;9.87;60.91;95346.25;10399805;28;20239;-53
2022/04/09 13:06:52;;;;;;;9.77;5.57;;;;;;;9.15;61.96;95353.06;10409217;28;20319;-54
2022/04/09 13:11:53;;;;;;;4.03;2.27;;;;;;;9.46;58.31;95287.50;10409269;28;20224;-57
2022/04/09 13:16:54;;;;;;;3.47;1.40;;;;;;;9.35;59.88;95340.25;10415389;28;20204;-54
2022/04/09 13:21:54;;;;;;;3.30;1.90;;;;;;;8.64;62.45;95381.69;10418087;28;20185;-54
2022/04/09 13:26:54;;;;;;;3.60;1.40;;;;;;;8.64;61.88;95374.66;10417165;28;20232;-59
2022/04/09 13:31:55;;;;;;;3.70;1.40;;;;;;;11.50;54.68;95250.97;10417925;28;20216;-55
2022/04/09 13:36:55;;;;;;;2.77;1.30;;;;;;;10.51;56.18;95271.31;10416337;28;20212;-54
2022/04/09 13:41:56;;;;;;;3.73;1.90;;;;;;;9.39;56.29;95259.69;10409912;28;20199;-57
2022/04/09 13:46:57;;;;;;;1.63;1.33;;;;;;;10.58;54.52;95246.00;10374659;28;20601;-54
2022/04/09 13:51:58;;;;;;;3.53;1.55;;;;;;;10.51;52.80;95232.06;10371630;28;20239;-57
2022/04/09 13:56:58;;;;;;;4.50;1.87;;;;;;;7.49;65.63;95509.13;10370128;28;20216;-57
2022/04/09 14:01:58;;;;;;;1.93;1.23;;;;;;;7.31;72.66;95638.78;10395889;28;20247;-57
2022/04/09 14:06:59;;;;;;;1.57;1.30;;;;;;;9.26;66.14;95493.72;10397761;28;20217;-54
2022/04/09 14:11:59;;;;;;;2.37;1.47;;;;;;;7.90;66.82;95502.13;10387518;28;20341;-57
2022/04/09 14:17:00;;;;;;;1.20;1.10;;;;;;;9.58;61.39;95400.22;10400063;28;20216;-52
2022/04/09 14:22:00;;;;;;;1.43;1.00;;;;;;;11.01;56.23;95331.44;10405529;28;20194;-59
2022/04/09 14:27:01;;;;;;;2.83;1.40;;;;;;;9.66;58.53;95359.28;10403781;28;20270;-54
2022/04/09 14:32:02;;;;;;;1.33;1.23;;;;;;;10.39;56.79;95338.31;10405960;28;20302;-57
2022/04/09 14:37:03;;;;;;;3.67;1.27;;;;;;;8.59;59.24;95378.78;10404067;28;20231;-56
2022/04/09 14:42:03;;;;;;;1.83;1.33;;;;;;;10.14;58.60;95407.50;10387303;28;20678;-53
2022/04/09 14:47:06;;;;;;;2.40;1.40;;;;;;;9.40;57.94;95373.66;10404616;28;20235;-56
2022/04/09 14:52:07;;;;;;;1.57;1.20;;;;;;;7.60;61.46;95442.00;10406174;28;20216;-56
2022/04/09 14:57:09;;;;;;;2.17;1.60;;;;;;;6.65;65.91;95524.16;10381143;28;20729;-55
2022/04/09 15:02:09;;;;;;;1.70;1.40;;;;;;;7.19;65.23;95530.69;10404135;28;20192;-58
2022/04/09 15:07:11;;;;;;;3.27;1.50;;;;;;;7.43;64.84;95533.25;10403139;28;20227;-55
2022/04/09 15:12:12;;;;;;;2.27;1.37;;;;;;;7.01;66.20;95594.13;10404095;28;20224;-56
2022/04/09 15:17:13;;;;;;;1.43;1.33;;;;;;;7.94;72.44;95719.88;10401430;28;20741;-57
2022/04/09 15:22:13;;;;;;;2.43;1.30;;;;;;;12.04;57.30;95443.53;10403251;28;20272;-56
2022/04/09 15:27:14;;;;;;;1.20;1.10;;;;;;;10.13;59.41;95463.44;10402475;28;20200;-53
2022/04/09 15:32:14;;;;;;;1.13;1.00;;;;;;;11.82;56.84;95440.16;10405696;28;20228;-56
2022/04/09 15:37:15;;;;;;;2.35;1.30;;;;;;;12.58;54.14;95405.03;10410869;28;20597;-56
2022/04/09 15:42:15;;;;;;;1.60;1.50;;;;;;;10.91;57.31;95443.66;10410766;28;20201;-55
2022/04/09 15:47:15;;;;;;;2.23;1.60;;;;;;;8.03;65.40;95669.34;10411030;28;20274;-52
2022/04/09 15:52:16;;;;;;;1.90;1.00;;;;;;;5.38;81.72;95883.41;10410293;28;20231;-54
2022/04/09 15:57:16;;;;;;;5.77;1.60;;;;;;;3.30;98.62;95844.13;10410161;28;20258;-57
2022/04/09 16:02:18;;;;;;;2.00;1.53;;;;;;;3.39;100.00;95829.56;10409451;28;20188;-60
2022/04/09 16:07:19;;;;;;;3.00;1.90;;;;;;;3.67;100.00;95817.59;10406544;28;20285;-60
2022/04/09 16:12:19;;;;;;;3.73;1.87;;;;;;;4.06;100.00;95806.41;10409526;28;20216;-59
2022/04/09 16:17:20;;;;;;;4.10;2.83;;;;;;;3.70;100.00;95806.16;10401332;28;20216;-54
2022/04/09 16:22:20;;;;;;;5.73;3.00;;;;;;;3.51;100.00;95812.97;10404842;28;20660;-55
2022/04/09 16:27:21;;;;;;;5.80;2.43;;;;;;;3.71;100.00;95828.53;10401461;28;20307;-58
2022/04/09 16:32:22;;;;;;;4.70;2.67;;;;;;;3.65;100.00;95844.59;10392479;28;20227;-56
2022/04/09 16:37:22;;;;;;;2.07;1.90;;;;;;;3.59;100.00;95877.03;10402680;28;20200;-57
2022/04/09 16:42:22;;;;;;;4.97;1.70;;;;;;;3.33;100.00;95892.22;10398968;28;20247;-59
2022/04/09 16:47:23;;;;;;;3.83;1.90;;;;;;;2.81;100.00;95893.09;10393893;28;20189;-56
2022/04/09 16:52:23;;;;;;;2.60;2.00;;;;;;;2.89;100.00;95879.53;10405226;28;20220;-62
2022/04/09 16:57:24;;;;;;;3.40;2.10;;;;;;;3.31;100.00;95876.84;10401377;28;20185;-58
2022/04/09 17:02:24;;;;;;;8.27;6.20;;;;;;;3.40;100.00;95883.00;10403852;28;20207;-58
2022/04/09 17:07:24;;;;;;;3.67;2.03;;;;;;;3.37;100.00;95873.72;10393563;28;20212;-59
2022/04/09 17:12:25;;;;;;;2.93;2.47;;;;;;;2.79;100.00;95876.09;10393094;28;20223;-58
2022/04/09 17:17:25;;;;;;;5.67;3.73;;;;;;;1.99;100.00;95878.31;10379278;28;20188;-57
2022/04/09 17:22:26;;;;;;;4.77;3.07;;;;;;;1.82;100.00;95884.00;10394724;28;20212;-57
2022/04/09 17:27:26;;;;;;;5.53;3.77;;;;;;;1.83;100.00;95883.06;10383143;28;20202;-60
2022/04/09 17:32:27;;;;;;;4.10;2.27;;;;;;;1.73;100.00;95893.31;10391694;28;20244;-56
2022/04/09 17:37:28;;;;;;;3.47;2.40;;;;;;;1.71;100.00;95898.59;10392573;28;20210;-57
2022/04/09 17:42:28;;;;;;;6.37;2.87;;;;;;;1.69;100.00;95897.09;10392653;28;20202;-58
2022/04/09 17:47:28;;;;;;;3.00;2.23;;;;;;;1.32;100.00;95907.72;10392725;28;20203;-61
2022/04/09 17:52:29;;;;;;;3.53;3.23;;;;;;;1.34;100.00;95911.00;10400033;28;20649;-55
2022/04/09 17:57:30;;;;;;;2.70;2.50;;;;;;;1.31;100.00;95912.03;10397793;28;21040;-56
2022/04/09 18:02:30;;;;;;;2.97;2.10;;;;;;;1.28;100.00;95919.22;10399597;28;20188;-56
2022/04/09 18:07:31;;;;;;;4.13;2.13;;;;;;;1.30;100.00;95925.88;10400508;28;20196;-60
2022/04/09 18:12:35;;;;;;;2.00;1.80;;;;;;;1.27;100.00;95940.78;10401847;28;20888;-56
2022/04/09 18:17:35;;;;;;;3.67;2.27;;;;;;;1.18;100.00;95943.16;10401225;28;20206;-56
2022/04/09 18:22:36;;;;;;;3.13;1.77;;;;;;;1.24;100.00;95940.09;10400035;28;20332;-54
2022/04/09 18:27:36;;;;;;;2.80;2.30;;;;;;;1.12;100.00;95953.09;10401551;28;20261;-55
2022/04/09 18:32:36;;;;;;;4.00;2.80;;;;;;;1.17;100.00;95964.72;10389316;28;20232;-57
2022/04/09 18:37:37;;;;;;;3.27;2.93;;;;;;;1.15;100.00;95973.50;10399515;28;20661;-57
2022/04/09 18:42:38;;;;;;;3.90;2.73;;;;;;;1.09;100.00;95972.22;10398317;28;20242;-58
2022/04/09 18:47:41;;;;;;;2.90;2.40;;;;;;;1.10;100.00;95983.34;10388214;28;20232;-57
2022/04/09 18:52:41;;;;;;;4.10;2.20;;;;;;;1.08;100.00;95996.38;10398902;28;20230;-57
2022/04/09 18:57:46;;;;;;;2.30;1.97;;;;;;;1.18;100.00;96001.63;10399468;28;20605;-58
2022/04/09 19:02:46;;;;;;;3.73;1.70;;;;;;;1.25;100.00;96010.56;10399696;28;20216;-55
2022/04/09 19:07:47;;;;;;;2.23;1.30;;;;;;;1.22;100.00;96019.34;10399053;28;20281;-55
2022/04/09 19:12:47;;;;;;;2.60;1.47;;;;;;;1.24;100.00;96027.81;10398641;28;20294;-55
2022/04/09 19:17:48;;;;;;;1.60;1.40;;;;;;;1.18;100.00;96036.00;10396853;28;20293;-56
2022/04/09 19:22:48;;;;;;;1.67;1.40;;;;;;;1.13;100.00;96051.00;10384077;28;20216;-56
2022/04/09 19:27:48;;;;;;;1.93;1.43;;;;;;;0.97;100.00;96066.81;10397665;28;20281;-55
2022/04/09 19:32:49;;;;;;;1.47;1.37;;;;;;;0.96;100.00;96057.41;10397425;28;20225;-55
2022/04/09 19:37:49;;;;;;;3.77;2.47;;;;;;;0.89;100.00;96051.09;10399182;28;20616;-57
2022/04/09 19:42:50;;;;;;;2.67;2.00;;;;;;;0.90;100.00;96063.03;10398104;28;20236;-55
2022/04/09 19:47:51;;;;;;;3.30;2.33;;;;;;;0.88;100.00;96059.75;10397189;28;20200;-58
2022/04/09 19:52:52;;;;;;;2.20;2.00;;;;;;;0.86;100.00;96057.28;10397767;28;20225;-54
2022/04/09 19:57:52;;;;;;;3.00;2.70;;;;;;;0.91;100.00;96072.41;10396645;28;20196;-58
2022/04/09 20:02:52;;;;;;;5.73;3.20;;;;;;;0.83;100.00;96069.59;10394376;28;20694;-58
2022/04/09 20:07:53;;;;;;;3.53;3.23;;;;;;;0.77;100.00;96078.56;10396115;28;20197;-57
2022/04/09 20:12:53;;;;;;;3.30;3.00;;;;;;;0.72;100.00;96078.09;10396282;28;20231;-57
2022/04/09 20:17:54;;;;;;;3.63;2.50;;;;;;;0.78;100.00;96089.69;10396748;28;20205;-56
2022/04/09 20:22:54;;;;;;;4.53;2.97;;;;;;;0.85;100.00;96089.16;10388277;28;20230;-54
2022/04/09 20:27:55;;;;;;;4.17;2.53;;;;;;;0.85;100.00;96090.91;10389748;28;20199;-57
2022/04/09 20:32:55;;;;;;;2.40;2.20;;;;;;;0.81;100.00;96095.47;10396586;28;20232;-55
2022/04/09 20:37:56;;;;;;;2.90;2.20;;;;;;;0.77;100.00;96093.22;10393920;28;20877;-59
2022/04/09 20:42:56;;;;;;;2.73;2.20;;;;;;;0.76;100.00;96094.97;10395665;28;20243;-56
2022/04/09 20:47:56;;;;;;;4.27;2.20;;;;;;;0.73;100.00;96089.22;10395348;28;20606;-58
2022/04/09 20:52:57;;;;;;;3.03;2.33;;;;;;;0.73;100.00;96102.13;10395918;28;20680;-56
2022/04/09 20:57:58;;;;;;;2.83;2.03;;;;;;;0.68;100.00;96102.44;10392824;28;20261;-57
2022/04/09 21:02:59;;;;;;;4.93;2.17;;;;;;;0.67;100.00;96124.00;10396414;28;20354;-59
2022/04/09 21:08:00;;;;;;;2.10;1.97;;;;;;;0.65;100.00;96126.69;10395487;28;20276;-58
2022/04/09 21:13:00;;;;;;;2.47;2.27;;;;;;;0.66;100.00;96128.34;10394609;28;20275;-60
2022/04/09 21:18:01;;;;;;;3.60;2.07;;;;;;;0.67;100.00;96136.88;10395429;28;20610;-56
2022/04/09 21:23:02;;;;;;;3.73;2.17;;;;;;;0.68;100.00;96139.34;10395324;28;20231;-57
2022/04/09 21:28:02;;;;;;;2.50;2.30;;;;;;;0.68;100.00;96139.34;10394786;28;20196;-54
2022/04/09 21:33:04;;;;;;;5.60;2.23;;;;;;;0.74;100.00;96155.31;10395259;28;20313;-60
2022/04/09 21:38:04;;;;;;;2.63;2.43;;;;;;;0.60;100.00;96166.59;10398996;28;20188;-60
2022/04/09 21:43:05;;;;;;;2.10;1.90;;;;;;;0.64;100.00;96168.84;10383947;28;20247;-57
2022/04/09 21:48:05;;;;;;;3.07;2.27;;;;;;;0.58;100.00;96168.47;10368379;28;20255;-59
2022/04/09 21:53:06;;;;;;;2.77;2.53;;;;;;;0.55;100.00;96179.81;10369181;28;20229;-58
2022/04/09 21:58:07;;;;;;;3.03;2.57;;;;;;;0.49;100.00;96173.34;10368731;28;20196;-58
2022/04/09 22:03:07;;;;;;;3.57;2.30;;;;;;;0.56;100.00;96173.72;10368479;28;20218;-60
2022/04/09 22:08:08;;;;;;;4.57;2.87;;;;;;;0.50;100.00;96190.44;10368398;28;20228;-58
2022/04/09 22:13:09;;;;;;;4.50;2.70;;;;;;;0.61;100.00;96191.44;10367546;28;20251;-56
2022/04/09 22:18:10;;;;;;;4.27;2.50;;;;;;;0.78;100.00;96203.97;10366932;28;20198;-58
2022/04/09 22:23:10;;;;;;;3.47;2.53;;;;;;;0.85;100.00;96212.09;10371095;28;20216;-59
2022/04/09 22:28:12;;;;;;;3.07;2.60;;;;;;;0.84;100.00;96198.38;10365918;28;20220;-58
2022/04/09 22:33:13;;;;;;;5.47;2.80;;;;;;;0.86;100.00;96198.28;10367264;28;20229;-58
2022/04/09 22:38:14;;;;;;;3.17;2.80;;;;;;;0.77;100.00;96201.50;10367199;28;20563;-59
2022/04/09 22:43:15;;;;;;;5.07;3.00;;;;;;;0.74;100.00;96206.88;10368304;28;20228;-55
2022/04/09 22:48:17;;;;;;;2.70;2.47;;;;;;;0.67;100.00;96209.91;10365216;28;20231;-58
2022/04/09 22:53:17;;;;;;;5.57;2.83;;;;;;;0.68;100.00;96215.88;10368000;28;20226;-55
2022/04/09 22:58:18;;;;;;;5.70;3.17;;;;;;;0.67;100.00;96224.53;10365534;28;21009;-57
2022/04/09 23:03:19;;;;;;;3.10;2.80;;;;;;;0.64;100.00;96235.03;10365455;28;20224;-60
2022/04/09 23:08:20;;;;;;;4.83;3.03;;;;;;;0.62;100.00;96226.59;10365533;28;20211;-58
2022/04/09 23:13:20;;;;;;;3.80;2.63;;;;;;;0.65;100.00;96231.53;10364286;28;20701;-58
2022/04/09 23:18:20;;;;;;;3.77;2.70;;;;;;;0.60;100.00;96233.59;10364354;28;20755;-58
2022/04/09 23:23:21;;;;;;;2.60;2.40;;;;;;;0.61;100.00;96228.34;10364784;28;20260;-57
2022/04/09 23:28:21;;;;;;;5.30;2.47;;;;;;;0.73;100.00;96231.00;10363488;28;20265;-59